sensor_id;sensor_type;location;lat;lon;timestamp;pressure;altitude;pressure_sealevel;temperature;humidity
70976;BME280;58635;51.198;6.010;2023-02-27T00:00:12;102581.47;;;5.46;49.04
70976;BME280;58635;51.198;6.010;2023-02-27T00:02:49;102586.81;;;5.43;48.93
70976;BME280;58635;51.198;6.010;2023-02-27T00:05:15;102588.69;;;5.41;48.69
70976;BME280;58635;51.198;6.010;2023-02-27T00:07:41;102589.75;;;5.38;49.13
70976;BME280;58635;51.198;6.010;2023-02-27T00:10:08;102598.38;;;5.37;49.03
70976;BME280;58635;51.198;6.010;2023-02-27T00:12:34;102589.16;;;5.35;48.96
70976;BME280;58635;51.198;6.010;2023-02-27T00:15:08;102592.66;;;5.34;49.49
70976;BME280;58635;51.198;6.010;2023-02-27T00:17:34;102596.25;;;5.31;49.27
70976;BME280;58635;51.198;6.010;2023-02-27T00:19:59;102595.56;;;5.29;49.08
70976;BME280;58635;51.198;6.010;2023-02-27T00:22:25;102586.34;;;5.26;49.59
70976;BME280;58635;51.198;6.010;2023-02-27T00:24:51;102590.66;;;5.26;49.25
70976;BME280;58635;51.198;6.010;2023-02-27T00:27:17;102590.78;;;5.24;49.37
70976;BME280;58635;51.198;6.010;2023-02-27T00:29:42;102590.09;;;5.22;49.19
70976;BME280;58635;51.198;6.010;2023-02-27T00:32:07;102591.84;;;5.22;49.45
70976;BME280;58635;51.198;6.010;2023-02-27T00:34:33;102586.91;;;5.19;49.29
70976;BME280;58635;51.198;6.010;2023-02-27T00:36:58;102587.84;;;5.18;49.74
70976;BME280;58635;51.198;6.010;2023-02-27T00:39:24;102589.00;;;5.14;49.42
70976;BME280;58635;51.198;6.010;2023-02-27T00:41:49;102596.00;;;5.12;49.53
70976;BME280;58635;51.198;6.010;2023-02-27T00:44:14;102595.19;;;5.11;49.58
70976;BME280;58635;51.198;6.010;2023-02-27T00:46:40;102592.75;;;5.10;49.45
70976;BME280;58635;51.198;6.010;2023-02-27T00:49:05;102590.25;;;5.08;49.99
70976;BME280;58635;51.198;6.010;2023-02-27T00:51:30;102587.94;;;5.05;49.65
70976;BME280;58635;51.198;6.010;2023-02-27T00:53:56;102579.53;;;5.03;49.76
70976;BME280;58635;51.198;6.010;2023-02-27T00:56:21;102583.97;;;5.01;49.79
70976;BME280;58635;51.198;6.010;2023-02-27T00:58:46;102588.41;;;4.99;49.77
70976;BME280;58635;51.198;6.010;2023-02-27T01:01:12;102586.84;;;4.96;50.06
70976;BME280;58635;51.198;6.010;2023-02-27T01:03:38;102583.59;;;4.94;49.89
70976;BME280;58635;51.198;6.010;2023-02-27T01:06:03;102591.28;;;4.94;49.76
70976;BME280;58635;51.198;6.010;2023-02-27T01:08:29;102592.22;;;4.93;49.98
70976;BME280;58635;51.198;6.010;2023-02-27T01:10:55;102597.56;;;4.90;50.04
70976;BME280;58635;51.198;6.010;2023-02-27T01:13:21;102591.03;;;4.86;50.14
70976;BME280;58635;51.198;6.010;2023-02-27T01:15:47;102590.22;;;4.86;50.15
70976;BME280;58635;51.198;6.010;2023-02-27T01:18:12;102585.28;;;4.83;50.30
70976;BME280;58635;51.198;6.010;2023-02-27T01:20:37;102589.59;;;4.82;50.01
70976;BME280;58635;51.198;6.010;2023-02-27T01:23:03;102587.28;;;4.79;50.08
70976;BME280;58635;51.198;6.010;2023-02-27T01:25:28;102593.31;;;4.78;50.52
70976;BME280;58635;51.198;6.010;2023-02-27T01:27:54;102579.81;;;4.76;50.39
70976;BME280;58635;51.198;6.010;2023-02-27T01:30:19;102586.81;;;4.74;50.35
70976;BME280;58635;51.198;6.010;2023-02-27T01:32:44;102577.56;;;4.72;50.56
70976;BME280;58635;51.198;6.010;2023-02-27T01:35:10;102591.31;;;4.70;50.29
70976;BME280;58635;51.198;6.010;2023-02-27T01:37:36;102592.25;;;4.69;50.47
70976;BME280;58635;51.198;6.010;2023-02-27T01:40:01;102587.22;;;4.68;50.41
70976;BME280;58635;51.198;6.010;2023-02-27T01:42:28;102586.53;;;4.66;50.68
70976;BME280;58635;51.198;6.010;2023-02-27T01:47:46;102581.81;;;4.60;50.43
70976;BME280;58635;51.198;6.010;2023-02-27T01:50:13;102585.31;;;4.59;50.59
70976;BME280;58635;51.198;6.010;2023-02-27T01:52:39;102577.63;;;4.59;50.50
70976;BME280;58635;51.198;6.010;2023-02-27T01:55:05;102582.88;;;4.57;50.88
70976;BME280;58635;51.198;6.010;2023-02-27T01:57:36;102589.84;;;4.55;50.85
70976;BME280;58635;51.198;6.010;2023-02-27T02:00:03;102588.44;;;4.51;50.85
70976;BME280;58635;51.198;6.010;2023-02-27T02:02:35;102591.22;;;4.48;51.07
70976;BME280;58635;51.198;6.010;2023-02-27T02:05:01;102586.19;;;4.47;50.74
70976;BME280;58635;51.198;6.010;2023-02-27T02:07:28;102588.16;;;4.43;50.87
70976;BME280;58635;51.198;6.010;2023-02-27T02:09:57;102586.53;;;4.42;51.01
70976;BME280;58635;51.198;6.010;2023-02-27T02:12:27;102589.22;;;4.40;50.87
70976;BME280;58635;51.198;6.010;2023-02-27T02:14:53;102589.31;;;4.39;50.81
70976;BME280;58635;51.198;6.010;2023-02-27T02:23:20;102581.47;;;4.29;51.31
70976;BME280;58635;51.198;6.010;2023-02-27T02:40:02;102586.50;;;4.18;51.52
70976;BME280;58635;51.198;6.010;2023-02-27T02:45:13;102579.94;;;4.14;51.57
70976;BME280;58635;51.198;6.010;2023-02-27T02:53:29;102586.34;;;4.08;51.54
70976;BME280;58635;51.198;6.010;2023-02-27T02:59:21;102584.91;;;4.04;51.59
70976;BME280;58635;51.198;6.010;2023-02-27T03:02:16;102586.66;;;4.04;51.84
70976;BME280;58635;51.198;6.010;2023-02-27T03:04:53;102583.38;;;4.02;51.56
70976;BME280;58635;51.198;6.010;2023-02-27T03:07:31;102583.38;;;4.02;51.63
70976;BME280;58635;51.198;6.010;2023-02-27T03:13:03;102593.81;;;3.99;51.63
70976;BME280;58635;51.198;6.010;2023-02-27T03:15:40;102588.00;;;3.97;51.66
70976;BME280;58635;51.198;6.010;2023-02-27T03:18:13;102592.31;;;3.96;51.71
70976;BME280;58635;51.198;6.010;2023-02-27T03:20:51;102593.22;;;3.95;51.92
70976;BME280;58635;51.198;6.010;2023-02-27T03:23:28;102597.53;;;3.95;51.99
70976;BME280;58635;51.198;6.010;2023-02-27T03:25:56;102595.19;;;3.92;52.01
70976;BME280;58635;51.198;6.010;2023-02-27T03:28:26;102600.31;;;3.92;51.83
70976;BME280;58635;51.198;6.010;2023-02-27T03:30:59;102594.38;;;3.91;51.89
70976;BME280;58635;51.198;6.010;2023-02-27T03:33:40;102591.00;;;3.91;52.03
70976;BME280;58635;51.198;6.010;2023-02-27T03:36:27;102592.00;;;3.88;51.92
70976;BME280;58635;51.198;6.010;2023-02-27T03:39:03;102592.91;;;3.87;52.07
70976;BME280;58635;51.198;6.010;2023-02-27T03:41:38;102601.41;;;3.88;52.14
70976;BME280;58635;51.198;6.010;2023-02-27T03:46:37;102596.63;;;3.83;52.09
70976;BME280;58635;51.198;6.010;2023-02-27T03:49:03;102605.22;;;3.82;52.28
70976;BME280;58635;51.198;6.010;2023-02-27T03:51:29;102610.56;;;3.79;52.15
70976;BME280;58635;51.198;6.010;2023-02-27T03:54:00;102614.03;;;3.78;52.40
70976;BME280;58635;51.198;6.010;2023-02-27T03:56:54;102618.31;;;3.77;52.28
70976;BME280;58635;51.198;6.010;2023-02-27T03:59:20;102618.44;;;3.76;52.59
70976;BME280;58635;51.198;6.010;2023-02-27T04:01:47;102620.28;;;3.74;52.12
70976;BME280;58635;51.198;6.010;2023-02-27T04:04:15;102622.84;;;3.74;52.43
70976;BME280;58635;51.198;6.010;2023-02-27T04:06:45;102622.13;;;3.72;52.43
70976;BME280;58635;51.198;6.010;2023-02-27T04:09:47;102625.59;;;3.71;52.74
70976;BME280;58635;51.198;6.010;2023-02-27T04:20:55;102637.97;;;3.64;52.78
70976;BME280;58635;51.198;6.010;2023-02-27T04:23:39;102636.34;;;3.63;52.73
70976;BME280;58635;51.198;6.010;2023-02-27T04:28:47;102637.47;;;3.59;52.50
70976;BME280;58635;51.198;6.010;2023-02-27T04:34:09;102644.56;;;3.56;52.63
70976;BME280;58635;51.198;6.010;2023-02-27T04:36:48;102637.88;;;3.53;52.73
70976;BME280;58635;51.198;6.010;2023-02-27T04:39:21;102639.63;;;3.52;52.91
70976;BME280;58635;51.198;6.010;2023-02-27T04:42:05;102643.19;;;3.50;52.68
70976;BME280;58635;51.198;6.010;2023-02-27T04:44:35;102639.72;;;3.51;53.05
70976;BME280;58635;51.198;6.010;2023-02-27T04:47:03;102645.88;;;3.48;52.87
70976;BME280;58635;51.198;6.010;2023-02-27T04:49:35;102653.44;;;3.50;53.05
70976;BME280;58635;51.198;6.010;2023-02-27T04:54:43;102652.72;;;3.48;52.93
70976;BME280;58635;51.198;6.010;2023-02-27T04:57:17;102655.38;;;3.46;53.12
70976;BME280;58635;51.198;6.010;2023-02-27T04:59:47;102657.22;;;3.44;52.95
70976;BME280;58635;51.198;6.010;2023-02-27T05:02:26;102653.94;;;3.42;52.93
70976;BME280;58635;51.198;6.010;2023-02-27T05:04:58;102655.78;;;3.40;53.03
70976;BME280;58635;51.198;6.010;2023-02-27T05:07:29;102653.31;;;3.39;52.87
70976;BME280;58635;51.198;6.010;2023-02-27T05:10:05;102653.53;;;3.36;53.03
70976;BME280;58635;51.198;6.010;2023-02-27T05:12:38;102649.44;;;3.33;53.09
70976;BME280;58635;51.198;6.010;2023-02-27T05:20:05;102648.91;;;3.28;52.79
70976;BME280;58635;51.198;6.010;2023-02-27T05:22:45;102655.75;;;3.28;52.99
70976;BME280;58635;51.198;6.010;2023-02-27T05:28:03;102662.19;;;3.20;52.84
70976;BME280;58635;51.198;6.010;2023-02-27T05:30:35;102669.94;;;3.19;53.21
70976;BME280;58635;51.198;6.010;2023-02-27T05:33:16;102668.41;;;3.16;53.06
70976;BME280;58635;51.198;6.010;2023-02-27T05:38:19;102673.53;;;3.16;53.20
70976;BME280;58635;51.198;6.010;2023-02-27T05:40:56;102672.81;;;3.14;53.14
70976;BME280;58635;51.198;6.010;2023-02-27T05:43:31;102672.00;;;3.14;53.16
70976;BME280;58635;51.198;6.010;2023-02-27T05:46:03;102677.09;;;3.14;53.17
70976;BME280;58635;51.198;6.010;2023-02-27T05:48:45;102674.66;;;3.12;53.36
70976;BME280;58635;51.198;6.010;2023-02-27T05:51:13;102675.47;;;3.13;53.38
70976;BME280;58635;51.198;6.010;2023-02-27T05:53:47;102672.09;;;3.12;53.51
70976;BME280;58635;51.198;6.010;2023-02-27T05:56:15;102678.41;;;3.07;53.55
70976;BME280;58635;51.198;6.010;2023-02-27T05:58:48;102675.84;;;3.07;53.23
70976;BME280;58635;51.198;6.010;2023-02-27T06:01:15;102687.81;;;3.06;53.46
70976;BME280;58635;51.198;6.010;2023-02-27T06:03:40;102691.19;;;3.07;53.54
70976;BME280;58635;51.198;6.010;2023-02-27T06:06:15;102694.66;;;3.06;53.36
70976;BME280;58635;51.198;6.010;2023-02-27T06:08:42;102694.66;;;3.06;53.37
70976;BME280;58635;51.198;6.010;2023-02-27T06:11:07;102686.28;;;3.04;53.41
70976;BME280;58635;51.198;6.010;2023-02-27T06:13:33;102690.56;;;3.03;53.65
70976;BME280;58635;51.198;6.010;2023-02-27T06:15:58;102695.69;;;3.03;53.51
70976;BME280;58635;51.198;6.010;2023-02-27T06:18:24;102700.91;;;3.02;53.43
70976;BME280;58635;51.198;6.010;2023-02-27T06:20:49;102706.94;;;3.01;53.71
70976;BME280;58635;51.198;6.010;2023-02-27T06:23:15;102711.22;;;3.00;53.75
70976;BME280;58635;51.198;6.010;2023-02-27T06:25:41;102708.66;;;3.00;53.69
70976;BME280;58635;51.198;6.010;2023-02-27T06:28:07;102717.97;;;3.01;53.75
70976;BME280;58635;51.198;6.010;2023-02-27T06:30:34;102718.78;;;3.02;53.83
70976;BME280;58635;51.198;6.010;2023-02-27T06:32:59;102717.16;;;3.01;53.88
70976;BME280;58635;51.198;6.010;2023-02-27T06:35:25;102720.53;;;3.01;53.81
70976;BME280;58635;51.198;6.010;2023-02-27T06:37:51;102722.16;;;3.02;53.78
70976;BME280;58635;51.198;6.010;2023-02-27T06:40:17;102725.63;;;3.01;53.92
70976;BME280;58635;51.198;6.010;2023-02-27T06:42:43;102722.97;;;3.03;53.76
70976;BME280;58635;51.198;6.010;2023-02-27T06:45:10;102723.91;;;3.02;53.88
70976;BME280;58635;51.198;6.010;2023-02-27T06:47:36;102732.50;;;3.01;53.79
70976;BME280;58635;51.198;6.010;2023-02-27T06:50:02;102730.66;;;3.03;53.84
70976;BME280;58635;51.198;6.010;2023-02-27T06:52:28;102737.50;;;3.02;53.81
70976;BME280;58635;51.198;6.010;2023-02-27T06:54:53;102734.94;;;3.02;53.81
70976;BME280;58635;51.198;6.010;2023-02-27T06:57:18;102740.06;;;3.02;53.98
70976;BME280;58635;51.198;6.010;2023-02-27T06:59:44;102742.50;;;3.04;53.92
70976;BME280;58635;51.198;6.010;2023-02-27T07:02:14;102751.91;;;3.03;53.99
70976;BME280;58635;51.198;6.010;2023-02-27T07:04:40;102757.75;;;3.05;53.77
70976;BME280;58635;51.198;6.010;2023-02-27T07:07:06;102757.59;;;3.08;53.84
70976;BME280;58635;51.198;6.010;2023-02-27T07:09:31;102764.22;;;3.11;54.08
70976;BME280;58635;51.198;6.010;2023-02-27T07:11:57;102761.56;;;3.12;53.77
70976;BME280;58635;51.198;6.010;2023-02-27T07:14:23;102762.28;;;3.14;53.95
70976;BME280;58635;51.198;6.010;2023-02-27T07:16:50;102767.22;;;3.17;54.12
70976;BME280;58635;51.198;6.010;2023-02-27T07:19:19;102765.47;;;3.18;53.93
70976;BME280;58635;51.198;6.010;2023-02-27T07:21:44;102769.59;;;3.20;53.74
70976;BME280;58635;51.198;6.010;2023-02-27T07:24:10;102777.88;;;3.24;53.96
70976;BME280;58635;51.198;6.010;2023-02-27T07:26:36;102779.44;;;3.27;53.99
70976;BME280;58635;51.198;6.010;2023-02-27T07:29:02;102780.97;;;3.29;54.07
70976;BME280;58635;51.198;6.010;2023-02-27T07:31:27;102781.69;;;3.31;54.03
70976;BME280;58635;51.198;6.010;2023-02-27T07:33:53;102773.03;;;3.34;54.00
70976;BME280;58635;51.198;6.010;2023-02-27T07:36:18;102778.03;;;3.35;53.85
70976;BME280;58635;51.198;6.010;2023-02-27T07:38:44;102779.56;;;3.38;53.96
70976;BME280;58635;51.198;6.010;2023-02-27T07:41:09;102781.22;;;3.39;54.11
70976;BME280;58635;51.198;6.010;2023-02-27T07:43:34;102787.16;;;3.39;53.94
70976;BME280;58635;51.198;6.010;2023-02-27T07:46:00;102781.94;;;3.41;54.00
70976;BME280;58635;51.198;6.010;2023-02-27T07:48:29;102786.06;;;3.43;54.14
70976;BME280;58635;51.198;6.010;2023-02-27T07:50:55;102795.25;;;3.46;54.17
70976;BME280;58635;51.198;6.010;2023-02-27T07:53:20;102797.41;;;3.52;54.15
70976;BME280;58635;51.198;6.010;2023-02-27T07:55:45;102800.63;;;3.56;53.68
70976;BME280;58635;51.198;6.010;2023-02-27T07:58:11;102799.50;;;3.60;53.91
70976;BME280;58635;51.198;6.010;2023-02-27T08:00:36;102800.94;;;3.64;54.11
70976;BME280;58635;51.198;6.010;2023-02-27T08:03:02;102802.41;;;3.68;54.04
70976;BME280;58635;51.198;6.010;2023-02-27T08:05:28;102808.22;;;3.70;53.81
70976;BME280;58635;51.198;6.010;2023-02-27T08:07:53;102801.97;;;3.74;54.03
70976;BME280;58635;51.198;6.010;2023-02-27T08:10:19;102803.50;;;3.76;53.81
70976;BME280;58635;51.198;6.010;2023-02-27T08:12:44;102797.31;;;3.80;53.92
70976;BME280;58635;51.198;6.010;2023-02-27T08:15:10;102795.47;;;3.83;53.96
70976;BME280;58635;51.198;6.010;2023-02-27T08:17:35;102795.97;;;3.88;54.12
70976;BME280;58635;51.198;6.010;2023-02-27T08:20:01;102799.97;;;3.92;53.94
70976;BME280;58635;51.198;6.010;2023-02-27T08:22:26;102794.66;;;3.95;53.97
70976;BME280;58635;51.198;6.010;2023-02-27T08:24:52;102795.38;;;3.97;53.71
70976;BME280;58635;51.198;6.010;2023-02-27T08:27:17;102799.56;;;3.98;53.75
70976;BME280;58635;51.198;6.010;2023-02-27T08:29:42;102801.19;;;3.99;54.30
70976;BME280;58635;51.198;6.010;2023-02-27T08:32:09;102794.88;;;4.04;54.13
70976;BME280;58635;51.198;6.010;2023-02-27T08:34:35;102795.47;;;4.08;54.08
70976;BME280;58635;51.198;6.010;2023-02-27T08:37:00;102798.66;;;4.11;53.62
70976;BME280;58635;51.198;6.010;2023-02-27T08:39:26;102801.09;;;4.13;53.47
70976;BME280;58635;51.198;6.010;2023-02-27T08:41:51;102808.59;;;4.16;53.68
70976;BME280;58635;51.198;6.010;2023-02-27T08:44:17;102810.03;;;4.20;53.65
70976;BME280;58635;51.198;6.010;2023-02-27T08:46:43;102808.91;;;4.24;53.75
70976;BME280;58635;51.198;6.010;2023-02-27T08:49:08;102804.41;;;4.28;53.86
70976;BME280;58635;51.198;6.010;2023-02-27T08:51:34;102807.59;;;4.31;53.62
70976;BME280;58635;51.198;6.010;2023-02-27T08:53:59;102812.28;;;4.37;53.50
70976;BME280;58635;51.198;6.010;2023-02-27T08:56:25;102810.25;;;4.43;53.42
70976;BME280;58635;51.198;6.010;2023-02-27T08:58:50;102816.69;;;4.48;53.35
70976;BME280;58635;51.198;6.010;2023-02-27T09:01:16;102813.72;;;4.54;53.28
70976;BME280;58635;51.198;6.010;2023-02-27T09:03:42;102812.47;;;4.60;53.37
70976;BME280;58635;51.198;6.010;2023-02-27T09:06:07;102810.31;;;4.66;53.41
70976;BME280;58635;51.198;6.010;2023-02-27T09:08:33;102815.00;;;4.73;53.39
70976;BME280;58635;51.198;6.010;2023-02-27T09:10:58;102802.72;;;4.78;53.47
70976;BME280;58635;51.198;6.010;2023-02-27T09:13:23;102809.16;;;4.83;53.10
70976;BME280;58635;51.198;6.010;2023-02-27T09:15:51;102808.75;;;4.89;53.02
70976;BME280;58635;51.198;6.010;2023-02-27T09:18:16;102807.47;;;4.95;53.00
70976;BME280;58635;51.198;6.010;2023-02-27T09:20:42;102805.44;;;5.00;53.09
70976;BME280;58635;51.198;6.010;2023-02-27T09:23:07;102803.13;;;5.08;53.20
70976;BME280;58635;51.198;6.010;2023-02-27T09:25:32;102801.91;;;5.14;52.96
70976;BME280;58635;51.198;6.010;2023-02-27T09:27:58;102803.94;;;5.21;52.74
70976;BME280;58635;51.198;6.010;2023-02-27T09:30:23;102806.06;;;5.27;53.04
70976;BME280;58635;51.198;6.010;2023-02-27T09:32:49;102819.28;;;5.34;52.78
70976;BME280;58635;51.198;6.010;2023-02-27T09:35:15;102818.22;;;5.37;52.65
70976;BME280;58635;51.198;6.010;2023-02-27T09:37:44;102813.81;;;5.39;52.49
70976;BME280;58635;51.198;6.010;2023-02-27T09:40:24;102817.66;;;5.44;52.32
70976;BME280;58635;51.198;6.010;2023-02-27T09:42:51;102819.00;;;5.50;52.04
70976;BME280;58635;51.198;6.010;2023-02-27T09:45:24;102816.91;;;5.55;51.97
70976;BME280;58635;51.198;6.010;2023-02-27T09:47:53;102814.84;;;5.60;51.37
70976;BME280;58635;51.198;6.010;2023-02-27T09:50:37;102821.38;;;5.64;51.08
70976;BME280;58635;51.198;6.010;2023-02-27T09:53:35;102816.84;;;5.68;51.26
70976;BME280;58635;51.198;6.010;2023-02-27T09:56:22;102827.72;;;5.71;51.04
70976;BME280;58635;51.198;6.010;2023-02-27T10:02:00;102818.31;;;5.83;50.88
70976;BME280;58635;51.198;6.010;2023-02-27T10:07:24;102815.81;;;5.94;50.26
70976;BME280;58635;51.198;6.010;2023-02-27T10:10:17;102815.44;;;5.99;50.13
70976;BME280;58635;51.198;6.010;2023-02-27T10:15:47;102818.97;;;6.09;49.91
70976;BME280;58635;51.198;6.010;2023-02-27T10:18:21;102811.03;;;6.12;49.97
70976;BME280;58635;51.198;6.010;2023-02-27T10:23:25;102805.44;;;6.18;49.61
70976;BME280;58635;51.198;6.010;2023-02-27T10:25:54;102804.16;;;6.24;49.87
70976;BME280;58635;51.198;6.010;2023-02-27T10:28:20;102803.84;;;6.28;49.15
70976;BME280;58635;51.198;6.010;2023-02-27T10:30:50;102802.53;;;6.34;49.26
70976;BME280;58635;51.198;6.010;2023-02-27T10:35:53;102810.63;;;6.40;48.99
70976;BME280;58635;51.198;6.010;2023-02-27T10:38:42;102805.56;;;6.50;49.20
70976;BME280;58635;51.198;6.010;2023-02-27T10:41:12;102805.34;;;6.64;49.16
70976;BME280;58635;51.198;6.010;2023-02-27T10:43:39;102811.53;;;6.73;48.81
70976;BME280;58635;51.198;6.010;2023-02-27T10:46:14;102816.09;;;6.81;48.31
70976;BME280;58635;51.198;6.010;2023-02-27T10:48:40;102816.78;;;6.83;48.30
70976;BME280;58635;51.198;6.010;2023-02-27T10:51:35;102806.16;;;6.87;48.19
70976;BME280;58635;51.198;6.010;2023-02-27T10:54:23;102813.63;;;6.90;48.14
70976;BME280;58635;51.198;6.010;2023-02-27T10:57:03;102810.44;;;6.98;47.65
70976;BME280;58635;51.198;6.010;2023-02-27T10:59:39;102805.78;;;7.03;47.56
70976;BME280;58635;51.198;6.010;2023-02-27T11:02:20;102804.00;;;7.03;47.66
70976;BME280;58635;51.198;6.010;2023-02-27T11:04:54;102809.28;;;7.02;47.52
70976;BME280;58635;51.198;6.010;2023-02-27T11:07:36;102802.25;;;7.04;47.31
70976;BME280;58635;51.198;6.010;2023-02-27T11:12:38;102792.41;;;7.09;47.26
70976;BME280;58635;51.198;6.010;2023-02-27T11:15:25;102802.66;;;7.20;47.17
70976;BME280;58635;51.198;6.010;2023-02-27T11:17:51;102797.00;;;7.38;47.12
70976;BME280;58635;51.198;6.010;2023-02-27T11:20:39;102790.38;;;7.56;47.10
70976;BME280;58635;51.198;6.010;2023-02-27T11:25:43;102784.69;;;7.94;46.42
70976;BME280;58635;51.198;6.010;2023-02-27T11:28:24;102784.91;;;8.12;45.89
70976;BME280;58635;51.198;6.010;2023-02-27T11:31:02;102779.94;;;8.20;45.87
70976;BME280;58635;51.198;6.010;2023-02-27T11:33:32;102782.91;;;8.25;45.82
70976;BME280;58635;51.198;6.010;2023-02-27T11:35:59;102783.25;;;8.32;45.62
70976;BME280;58635;51.198;6.010;2023-02-27T11:38:28;102773.50;;;8.35;45.42
70976;BME280;58635;51.198;6.010;2023-02-27T11:43:28;102767.13;;;8.39;45.43
70976;BME280;58635;51.198;6.010;2023-02-27T11:45:58;102762.56;;;8.43;45.49
70976;BME280;58635;51.198;6.010;2023-02-27T11:48:31;102770.84;;;8.46;45.32
70976;BME280;58635;51.198;6.010;2023-02-27T11:51:03;102764.59;;;8.49;45.13
70976;BME280;58635;51.198;6.010;2023-02-27T11:56:22;102765.97;;;8.53;45.17
70976;BME280;58635;51.198;6.010;2023-02-27T11:59:21;102755.00;;;8.61;45.03
70976;BME280;58635;51.198;6.010;2023-02-27T12:02:14;102755.03;;;8.70;44.84
70976;BME280;58635;51.198;6.010;2023-02-27T12:07:42;102755.44;;;8.85;44.55
70976;BME280;58635;51.198;6.010;2023-02-27T12:12:35;102756.13;;;8.97;44.00
70976;BME280;58635;51.198;6.010;2023-02-27T12:15:21;102746.25;;;9.02;43.63
70976;BME280;58635;51.198;6.010;2023-02-27T12:20:55;102743.25;;;9.26;43.18
70976;BME280;58635;51.198;6.010;2023-02-27T12:23:36;102730.47;;;9.34;42.87
70976;BME280;58635;51.198;6.010;2023-02-27T12:26:13;102736.56;;;9.43;42.75
70976;BME280;58635;51.198;6.010;2023-02-27T12:34:44;102723.28;;;9.47;42.26
70976;BME280;58635;51.198;6.010;2023-02-27T12:37:16;102720.41;;;9.50;42.00
70976;BME280;58635;51.198;6.010;2023-02-27T12:39:44;102708.66;;;9.65;41.96
70976;BME280;58635;51.198;6.010;2023-02-27T12:50:23;102700.25;;;9.63;41.24
70976;BME280;58635;51.198;6.010;2023-02-27T12:53:04;102705.84;;;9.49;41.21
70976;BME280;58635;51.198;6.010;2023-02-27T12:55:46;102694.72;;;9.49;41.48
70976;BME280;58635;51.198;6.010;2023-02-27T13:01:14;102698.34;;;9.56;40.71
70976;BME280;58635;51.198;6.010;2023-02-27T13:03:50;102700.69;;;9.49;40.75
70976;BME280;58635;51.198;6.010;2023-02-27T13:06:31;102688.03;;;9.56;41.15
70976;BME280;58635;51.198;6.010;2023-02-27T13:14:15;102682.97;;;9.64;40.92
70976;BME280;58635;51.198;6.010;2023-02-27T13:16:55;102688.25;;;9.72;40.77
70976;BME280;58635;51.198;6.010;2023-02-27T13:19:31;102691.53;;;9.74;40.51
70976;BME280;58635;51.198;6.010;2023-02-27T13:22:09;102676.19;;;9.63;40.24
70976;BME280;58635;51.198;6.010;2023-02-27T13:24:41;102683.41;;;9.59;40.52
70976;BME280;58635;51.198;6.010;2023-02-27T13:27:35;102681.66;;;9.50;40.31
70976;BME280;58635;51.198;6.010;2023-02-27T13:37:56;102660.72;;;9.44;40.91
70976;BME280;58635;51.198;6.010;2023-02-27T13:40:32;102668.97;;;9.57;40.60
70976;BME280;58635;51.198;6.010;2023-02-27T13:43:00;102670.59;;;9.67;40.34
70976;BME280;58635;51.198;6.010;2023-02-27T13:45:50;102667.00;;;9.78;39.76
70976;BME280;58635;51.198;6.010;2023-02-27T13:54:19;102664.69;;;10.12;39.08
70976;BME280;58635;51.198;6.010;2023-02-27T13:59:29;102651.41;;;10.35;39.11
70976;BME280;58635;51.198;6.010;2023-02-27T14:01:59;102655.53;;;10.45;38.95
70976;BME280;58635;51.198;6.010;2023-02-27T14:04:27;102655.59;;;10.53;38.76
70976;BME280;58635;51.198;6.010;2023-02-27T14:07:00;102660.78;;;10.53;38.67
70976;BME280;58635;51.198;6.010;2023-02-27T14:09:32;102661.91;;;10.51;38.89
70976;BME280;58635;51.198;6.010;2023-02-27T14:12:00;102665.22;;;10.43;39.01
70976;BME280;58635;51.198;6.010;2023-02-27T14:17:04;102652.50;;;10.32;39.03
70976;BME280;58635;51.198;6.010;2023-02-27T14:24:45;102644.66;;;10.24;38.59
70976;BME280;58635;51.198;6.010;2023-02-27T14:27:21;102650.09;;;10.21;38.64
70976;BME280;58635;51.198;6.010;2023-02-27T14:29:50;102645.06;;;10.19;38.48
70976;BME280;58635;51.198;6.010;2023-02-27T14:32:20;102643.19;;;10.21;38.62
70976;BME280;58635;51.198;6.010;2023-02-27T14:34:46;102639.19;;;10.27;38.48
70976;BME280;58635;51.198;6.010;2023-02-27T14:37:15;102646.06;;;10.36;38.55
70976;BME280;58635;51.198;6.010;2023-02-27T14:39:41;102649.47;;;10.37;38.42
70976;BME280;58635;51.198;6.010;2023-02-27T14:45:16;102642.06;;;10.24;38.58
70976;BME280;58635;51.198;6.010;2023-02-27T14:47:43;102648.63;;;10.18;38.52
70976;BME280;58635;51.198;6.010;2023-02-27T14:50:28;102648.63;;;10.18;38.62
70976;BME280;58635;51.198;6.010;2023-02-27T14:52:58;102648.50;;;10.10;38.65
70976;BME280;58635;51.198;6.010;2023-02-27T14:55:28;102645.13;;;10.10;38.56
70976;BME280;58635;51.198;6.010;2023-02-27T15:00:36;102649.63;;;10.08;38.54
70976;BME280;58635;51.198;6.010;2023-02-27T15:03:20;102647.88;;;9.99;38.64
70976;BME280;58635;51.198;6.010;2023-02-27T15:05:48;102650.50;;;9.89;38.67
70976;BME280;58635;51.198;6.010;2023-02-27T15:08:23;102654.09;;;9.78;38.76
70976;BME280;58635;51.198;6.010;2023-02-27T15:10:51;102653.56;;;9.75;38.92
70976;BME280;58635;51.198;6.010;2023-02-27T15:13:30;102656.81;;;9.77;39.07
70976;BME280;58635;51.198;6.010;2023-02-27T15:19:33;102663.63;;;9.78;38.50
70976;BME280;58635;51.198;6.010;2023-02-27T15:21:43;102658.22;;;9.71;38.63
70976;BME280;58635;51.198;6.010;2023-02-27T15:24:22;102657.00;;;9.65;38.59
70976;BME280;58635;51.198;6.010;2023-02-27T15:29:32;102659.59;;;9.56;38.98
70976;BME280;58635;51.198;6.010;2023-02-27T15:31:58;102653.47;;;9.57;39.19
70976;BME280;58635;51.198;6.010;2023-02-27T15:34:24;102654.56;;;9.64;39.31
70976;BME280;58635;51.198;6.010;2023-02-27T15:36:53;102656.97;;;9.75;38.98
70976;BME280;58635;51.198;6.010;2023-02-27T15:39:21;102660.22;;;9.77;38.87
70976;BME280;58635;51.198;6.010;2023-02-27T15:44:23;102662.94;;;9.76;38.87
70976;BME280;58635;51.198;6.010;2023-02-27T15:46:50;102659.16;;;9.70;38.99
70976;BME280;58635;51.198;6.010;2023-02-27T15:49:18;102669.91;;;9.65;39.09
70976;BME280;58635;51.198;6.010;2023-02-27T15:51:54;102664.63;;;9.57;39.14
70976;BME280;58635;51.198;6.010;2023-02-27T15:54:22;102660.31;;;9.48;39.27
70976;BME280;58635;51.198;6.010;2023-02-27T15:56:48;102657.63;;;9.40;39.38